Time;durP1;ratioP1;P1;durP2;ratioP2;P2;SDS_P1;SDS_P2;PMS_P1;PMS_P2;Temp;Humidity;BMP_temperature;BMP_pressure;BME280_temperature;BME280_humidity;BME280_pressure;Samples;Min_cycle;Max_cycle;Signal;HPM_P1;HPM_P2
2021/04/10 00:01:49;;;;;;;9.43;5.50;;;230.50;1152.00;;;;;;4842573;29;20496;-68
2021/04/10 00:04:14;;;;;;;10.60;6.05;;;230.50;1152.00;;;;;;4842553;29;20068;-66
2021/04/10 00:06:41;;;;;;;14.48;6.78;;;230.50;1177.60;;;;;;4832797;29;20504;-68
2021/04/10 00:09:08;;;;;;;10.45;5.90;;;;;;;;;;4844075;29;20125;-68
2021/04/10 00:11:34;;;;;;;9.88;5.55;;;230.40;1203.20;;;;;;4832488;29;20062;-69
2021/04/10 00:14:05;;;;;;;12.85;6.32;;;205.60;1203.20;;;;;;4839951;29;20511;-68
2021/04/10 00:16:30;;;;;;;10.63;6.03;;;205.60;1203.20;;;;;;4842446;29;20036;-68
2021/04/10 00:18:56;;;;;;;9.88;5.85;;;205.60;1203.20;;;;;;4843769;29;20037;-67
2021/04/10 00:21:22;;;;;;;10.05;5.82;;;205.50;1228.80;;;;;;4840445;29;20036;-68
2021/04/10 00:23:47;;;;;;;13.20;6.00;;;205.70;1254.40;;;;;;4835011;29;20523;-68
2021/04/10 00:26:14;;;;;;;11.35;6.07;;;205.30;1228.80;;;;;;4841925;29;20030;-68
2021/04/10 00:28:40;;;;;;;10.80;6.03;;;205.30;1254.40;;;;;;4839910;29;20404;-68
2021/04/10 00:31:06;;;;;;;10.57;6.00;;;205.30;1254.40;;;;;;4843763;29;20034;-68
2021/04/10 00:33:40;;;;;;;8.73;6.30;;;205.30;1280.00;;;;;;4840158;29;20034;-68
2021/04/10 00:36:07;;;;;;;11.15;6.22;;;205.30;1280.00;;;;;;4831181;29;20414;-68
2021/04/10 00:38:34;;;;;;;9.23;5.47;;;;;;;;;;4843901;29;20095;-67
2021/04/10 00:41:00;;;;;;;12.43;6.22;;;205.30;1280.00;;;;;;4843254;29;20034;-68
2021/04/10 00:43:26;;;;;;;15.15;6.35;;;205.30;1305.60;;;;;;4835151;29;20065;-68
2021/04/10 00:45:52;;;;;;;11.65;6.13;;;205.30;1305.60;;;;;;4839613;29;20026;-69
2021/04/10 00:48:18;;;;;;;9.55;5.50;;;205.20;1305.60;;;;;;4842133;29;20504;-68
2021/04/10 00:50:45;;;;;;;12.35;6.00;;;205.20;1305.60;;;;;;4841404;29;20528;-68
2021/04/10 00:53:12;;;;;;;10.35;5.57;;;205.20;1305.60;;;;;;4833455;29;20092;-67
2021/04/10 00:55:39;;;;;;;10.25;5.28;;;205.20;1305.60;;;;;;4834230;29;20110;-69
2021/04/10 00:58:05;;;;;;;9.40;5.35;;;205.20;1331.20;;;;;;4838079;29;20075;-67
2021/04/10 01:00:31;;;;;;;10.43;5.57;;;205.20;1331.20;;;;;;4834644;29;20122;-68
2021/04/10 01:02:56;;;;;;;8.65;5.25;;;205.20;1331.20;;;;;;4842940;29;20030;-67
2021/04/10 01:05:22;;;;;;;9.38;5.07;;;205.20;1331.20;;;;;;4841601;29;20512;-68
2021/04/10 01:07:48;;;;;;;8.68;4.80;;;205.20;1331.20;;;;;;4837763;29;20030;-68
2021/04/10 01:10:14;;;;;;;7.97;4.90;;;205.20;1356.80;;;;;;4842447;29;20053;-67
2021/04/10 01:13:02;;;;;;;13.60;4.80;;;205.20;1356.80;;;;;;4842869;29;20483;-68
2021/04/10 01:15:54;;;;;;;10.05;5.30;;;205.20;1356.80;;;;;;4839945;29;20018;-68
2021/04/10 01:18:43;;;;;;;8.68;5.10;;;205.20;1356.80;;;;;;4834226;29;20064;-69
2021/04/10 01:21:18;;;;;;;9.00;5.13;;;205.20;1382.40;;;;;;4831406;29;20056;-69
2021/04/10 01:24:14;;;;;;;12.27;5.28;;;205.30;1382.40;;;;;;4837123;29;20050;-67
2021/04/10 01:26:58;;;;;;;8.40;4.70;;;205.30;1382.40;;;;;;4839937;29;20026;-68
2021/04/10 01:29:25;;;;;;;10.23;5.00;;;205.30;1382.40;;;;;;4837674;29;20155;-68
2021/04/10 01:31:53;;;;;;;8.98;4.72;;;205.30;1382.40;;;;;;4841898;29;20042;-68
2021/04/10 01:34:26;;;;;;;8.60;4.50;;;205.30;1356.80;;;;;;4839914;29;20056;-68
2021/04/10 01:36:55;;;;;;;14.93;10.57;;;205.40;1382.40;;;;;;4833067;29;20489;-68
2021/04/10 01:39:22;;;;;;;19.50;13.30;;;205.30;1356.80;;;;;;4825406;29;20113;-67
2021/04/10 01:41:54;;;;;;;11.40;7.03;;;205.30;1356.80;;;;;;4827230;29;20458;-68
2021/04/10 01:44:21;;;;;;;9.93;5.88;;;205.30;1356.80;;;;;;4830011;29;20065;-68
2021/04/10 01:46:49;;;;;;;8.23;4.50;;;205.40;1356.80;;;;;;4829261;29;20034;-68
2021/04/10 01:49:15;;;;;;;10.85;4.28;;;205.30;1356.80;;;;;;4836048;29;20030;-68
2021/04/10 01:51:41;;;;;;;12.35;4.25;;;205.40;1356.80;;;;;;4824725;29;20057;-68
2021/04/10 01:54:08;;;;;;;6.82;3.75;;;205.40;1331.20;;;;;;4832232;29;20038;-68
2021/04/10 01:56:38;;;;;;;6.75;3.90;;;205.40;1331.20;;;;;;4833293;29;20069;-67
2021/04/10 01:59:05;;;;;;;7.63;4.20;;;205.50;1331.20;;;;;;4835246;29;20392;-68
2021/04/10 02:01:31;;;;;;;7.35;4.07;;;205.50;1331.20;;;;;;4824794;29;20023;-68
2021/04/10 02:03:58;;;;;;;8.90;3.70;;;205.40;1331.20;;;;;;4829537;29;20401;-68
2021/04/10 02:06:24;;;;;;;6.88;3.45;;;205.40;1331.20;;;;;;4827013;29;20487;-67
2021/04/10 02:08:52;;;;;;;6.03;3.38;;;205.40;1331.20;;;;;;4834092;29;20115;-67
2021/04/10 02:11:19;;;;;;;5.65;3.85;;;205.40;1331.20;;;;;;4836713;29;20097;-68
2021/04/10 02:13:45;;;;;;;7.68;3.85;;;205.50;1331.20;;;;;;4828204;29;20113;-68
2021/04/10 02:16:11;;;;;;;7.30;3.40;;;205.50;1331.20;;;;;;4823704;29;20468;-68
2021/04/10 02:18:38;;;;;;;5.68;3.17;;;205.50;1331.20;;;;;;4829463;29;20030;-68
2021/04/10 02:21:08;;;;;;;6.90;4.10;;;205.40;1331.20;;;;;;4829004;29;20057;-67
2021/04/10 02:23:37;;;;;;;7.15;3.50;;;205.40;1331.20;;;;;;4828654;29;20082;-68
2021/04/10 02:26:03;;;;;;;6.68;3.60;;;205.40;1331.20;;;;;;4825307;29;20485;-68
2021/04/10 02:28:29;;;;;;;5.57;3.50;;;205.40;1331.20;;;;;;4824484;29;20034;-68
2021/04/10 02:30:57;;;;;;;5.15;3.15;;;205.30;1331.20;;;;;;4828523;29;20037;-69
2021/04/10 02:33:43;;;;;;;11.27;3.50;;;205.20;1331.20;;;;;;4824888;29;20473;-69
2021/04/10 02:36:21;;;;;;;5.53;3.40;;;205.30;1331.20;;;;;;4823784;29;20103;-69
2021/04/10 02:38:49;;;;;;;7.30;3.28;;;205.20;1331.20;;;;;;4826208;29;20030;-68
2021/04/10 02:41:20;;;;;;;5.90;3.30;;;205.20;1331.20;;;;;;4823848;29;20038;-68
2021/04/10 02:43:55;;;;;;;12.45;3.70;;;205.20;1331.20;;;;;;4835458;29;20049;-68
2021/04/10 02:46:23;;;;;;;7.88;3.53;;;205.10;1331.20;;;;;;4827828;29;20030;-68
2021/04/10 02:49:11;;;;;;;10.48;3.25;;;205.10;1331.20;;;;;;4823075;29;20504;-68
2021/04/10 02:51:47;;;;;;;6.18;3.60;;;205.10;1331.20;;;;;;4828465;29;20049;-69
2021/04/10 02:54:17;;;;;;;7.95;3.30;;;205.00;1331.20;;;;;;4824406;29;20045;-68
2021/04/10 02:56:51;;;;;;;7.25;3.92;;;204.90;1331.20;;;;;;4828428;29;20077;-68
2021/04/10 02:59:20;;;;;;;9.88;4.85;;;204.80;1356.80;;;;;;4833236;29;20047;-65
2021/04/10 03:01:46;;;;;;;9.77;4.30;;;204.80;1356.80;;;;;;4837803;29;20404;-69
2021/04/10 03:04:13;;;;;;;12.80;3.65;;;180.10;1382.40;;;;;;4832956;29;20061;-68
2021/04/10 03:06:39;;;;;;;5.10;3.67;;;;;;;;;;4835278;29;20026;-68
2021/04/10 03:09:07;;;;;;;7.97;3.95;;;204.80;1382.40;;;;;;4824709;29;20041;-68
2021/04/10 03:11:33;;;;;;;7.53;3.70;;;180.10;1612.80;;;;;;4837954;29;20113;-68
2021/04/10 03:14:00;;;;;;;5.60;3.60;;;179.90;1408.00;;;;;;4835949;29;20493;-69
2021/04/10 03:16:29;;;;;;;6.30;3.60;;;;;;;;;;4830384;29;20504;-69
2021/04/10 03:18:57;;;;;;;7.85;3.72;;;179.90;1408.00;;;;;;4823185;29;20515;-67
2021/04/10 03:21:23;;;;;;;4.47;3.22;;;179.80;1408.00;;;;;;4823760;29;20503;-69
2021/04/10 03:23:49;;;;;;;5.90;3.60;;;179.70;1408.00;;;;;;4824734;29;20078;-68
2021/04/10 03:26:15;;;;;;;7.93;4.10;;;179.70;1408.00;;;;;;4826968;29;20060;-68
2021/04/10 03:28:41;;;;;;;8.00;4.38;;;179.70;1433.60;;;;;;4829438;29;20042;-67
2021/04/10 03:31:07;;;;;;;7.05;3.75;;;179.60;1433.60;;;;;;4824957;29;20061;-68
2021/04/10 03:33:34;;;;;;;6.93;3.38;;;179.50;1433.60;;;;;;4836472;29;20422;-65
2021/04/10 03:36:01;;;;;;;7.00;3.30;;;179.60;1408.00;;;;;;4836157;29;20061;-68
2021/04/10 03:38:28;;;;;;;5.47;3.00;;;179.60;1433.60;;;;;;4834423;29;20392;-68
2021/04/10 03:40:54;;;;;;;6.47;3.47;;;179.60;1433.60;;;;;;4844628;29;20086;-66
2021/04/10 03:43:20;;;;;;;7.60;3.22;;;179.60;1408.00;;;;;;4842657;29;20041;-67
2021/04/10 03:45:46;;;;;;;5.10;3.30;;;179.60;1408.00;;;;;;4833573;29;20038;-68
2021/04/10 03:48:12;;;;;;;6.30;2.83;;;179.70;1408.00;;;;;;4827858;29;20035;-68
2021/04/10 03:50:39;;;;;;;5.88;2.90;;;179.70;1408.00;;;;;;4836918;29;20030;-67
2021/04/10 03:53:06;;;;;;;5.03;3.00;;;179.70;1408.00;;;;;;4830416;29;20103;-67
2021/04/10 03:55:32;;;;;;;5.05;2.85;;;179.70;1408.00;;;;;;4837571;29;20492;-68
2021/04/10 03:58:02;;;;;;;5.60;3.13;;;179.70;1408.00;;;;;;4827095;29;20045;-67
2021/04/10 04:00:28;;;;;;;5.18;3.22;;;179.70;1408.00;;;;;;4837517;29;20525;-66
2021/04/10 04:02:54;;;;;;;7.38;3.47;;;179.70;1408.00;;;;;;4831134;29;20030;-68
2021/04/10 04:05:20;;;;;;;7.97;3.40;;;179.80;1408.00;;;;;;4837362;29;20125;-66
2021/04/10 04:07:46;;;;;;;7.28;3.72;;;179.80;1408.00;;;;;;4839927;29;20114;-67
2021/04/10 04:10:12;;;;;;;6.20;3.80;;;179.80;1408.00;;;;;;4827045;29;20035;-68
2021/04/10 04:12:38;;;;;;;8.18;4.57;;;179.80;1408.00;;;;;;4830863;29;20030;-66
2021/04/10 04:15:05;;;;;;;8.07;4.47;;;179.80;1408.00;;;;;;4832893;29;20038;-68
2021/04/10 04:17:30;;;;;;;9.57;4.47;;;179.90;1408.00;;;;;;4832957;29;20478;-68
2021/04/10 04:19:56;;;;;;;9.18;4.65;;;180.00;1382.40;;;;;;4833827;29;20035;-67
2021/04/10 04:22:22;;;;;;;9.27;4.72;;;180.00;1382.40;;;;;;4835199;29;20041;-68
2021/04/10 04:24:48;;;;;;;9.15;4.88;;;180.10;1382.40;;;;;;4825900;29;20077;-67
2021/04/10 04:27:13;;;;;;;13.05;5.10;;;204.80;1382.40;;;;;;4838771;29;20061;-67
2021/04/10 04:29:40;;;;;;;11.45;4.85;;;204.80;1382.40;;;;;;4832683;29;20053;-68
2021/04/10 04:32:06;;;;;;;14.32;4.82;;;205.00;1356.80;;;;;;4830482;29;20030;-68
2021/04/10 04:34:32;;;;;;;12.07;5.30;;;205.10;1382.40;;;;;;4838865;29;20515;-68
2021/04/10 04:36:57;;;;;;;14.45;5.47;;;205.30;1356.80;;;;;;4841938;29;20038;-68
2021/04/10 04:39:23;;;;;;;12.63;5.20;;;205.50;1331.20;;;;;;4837478;29;20198;-67
2021/04/10 04:41:49;;;;;;;14.15;5.55;;;205.60;1331.20;;;;;;4840256;29;20389;-72
2021/04/10 04:44:15;;;;;;;14.73;4.93;;;230.50;1331.20;;;;;;4838824;29;20038;-74
2021/04/10 04:46:41;;;;;;;11.68;4.93;;;;;;;;;;4834271;29;20112;-69
2021/04/10 04:49:07;;;;;;;9.52;4.60;;;;;;;;;;4835424;29;20030;-70
2021/04/10 04:51:33;;;;;;;12.32;4.68;;;;;;;;;;4831502;29;20463;-68
2021/04/10 04:53:59;;;;;;;30.95;6.63;;;;;;;;;;4841780;29;20053;-69
2021/04/10 04:56:25;;;;;;;35.35;11.30;;;;;;;;;;4839613;29;20034;-69
2021/04/10 04:58:51;;;;;;;16.13;8.13;;;;;;;;;;4830193;29;20084;-68
2021/04/10 05:01:18;;;;;;;9.98;6.10;;;;;;;;;;4828942;29;20493;-67
2021/04/10 05:03:44;;;;;;;8.48;5.45;;;;;;;;;;4836124;29;20481;-78
2021/04/10 05:06:10;;;;;;;9.10;5.40;;;;;;;;;;4838807;29;20107;-70
2021/04/10 05:08:36;;;;;;;11.48;5.80;;;;;;;;;;4835456;29;20101;-85
2021/04/10 05:11:02;;;;;;;8.52;5.50;;;;;;;;;;4833756;29;20033;-76
2021/04/10 05:13:28;;;;;;;10.57;5.82;;;;;;;;;;4826837;29;20058;-73
2021/04/10 05:15:58;;;;;;;11.38;6.05;;;;;;;;;;4833893;29;20507;-71
2021/04/10 05:18:24;;;;;;;10.52;5.47;;;;;;;;;;4828600;29;20801;-67
2021/04/10 05:20:52;;;;;;;8.68;5.68;;;;;;;;;;4825368;29;20065;-68
2021/04/10 05:23:22;;;;;;;8.07;5.25;;;;;;;;;;4833412;29;20077;-73
2021/04/10 05:25:48;;;;;;;10.15;5.30;;;;;;;;;;4824332;29;20034;-72
2021/04/10 05:28:15;;;;;;;8.77;5.20;;;;;;;;;;4825919;29;20030;-67
2021/04/10 05:30:41;;;;;;;9.68;5.25;;;;;;;;;;4825129;29;20069;-64
2021/04/10 05:33:07;;;;;;;8.27;5.40;;;;;;;;;;4830119;29;20030;-70
2021/04/10 05:35:33;;;;;;;9.73;5.35;;;;;;;;;;4824990;29;20041;-67
2021/04/10 05:37:59;;;;;;;9.88;5.35;;;;;;;;;;4836802;29;20397;-73
2021/04/10 05:40:25;;;;;;;8.43;5.25;;;;;;;;;;4830901;29;20580;-73
2021/04/10 05:42:53;;;;;;;12.73;4.60;;;;;;;;;;4827394;29;20072;-69
2021/04/10 05:45:19;;;;;;;7.70;5.25;;;;;;;;;;4836774;29;20543;-70
2021/04/10 05:47:45;;;;;;;13.40;8.65;;;;;;;;;;4825157;29;20508;-73
2021/04/10 05:50:14;;;;;;;21.02;12.13;;;;;;;;;;4833386;29;20481;-74
2021/04/10 05:52:40;;;;;;;32.28;23.05;;;;;;;;;;4841022;29;20650;-67
2021/04/10 05:55:06;;;;;;;12.02;6.90;;;;;;;;;;4827846;29;20031;-72
2021/04/10 05:57:32;;;;;;;13.00;6.57;;;;;;;;;;4828706;29;20098;-72
2021/04/10 05:59:59;;;;;;;12.75;6.93;;;;;;;;;;4841890;29;20037;-73
2021/04/10 06:02:25;;;;;;;12.60;6.70;;;;;;;;;;4824814;29;20044;-73
2021/04/10 06:04:51;;;;;;;12.68;6.85;;;;;;;;;;4829212;29;20042;-73
2021/04/10 06:07:17;;;;;;;15.13;7.53;;;;;;;;;;4833635;29;20023;-71
2021/04/10 06:09:43;;;;;;;12.95;7.30;;;;;;;;;;4835132;29;20065;-68
2021/04/10 06:12:09;;;;;;;16.40;9.05;;;;;;;;;;4834415;29;20029;-68
2021/04/10 06:14:35;;;;;;;12.50;7.35;;;;;;;;;;4833188;29;20045;-67
2021/04/10 06:17:02;;;;;;;8.93;6.00;;;;;;;;;;4836028;29;20030;-70
2021/04/10 06:19:28;;;;;;;10.10;5.60;;;;;;;;;;4830489;29;20105;-69
2021/04/10 06:21:54;;;;;;;8.23;4.85;;;;;;;;;;4824672;29;20048;-73
2021/04/10 06:24:20;;;;;;;5.60;4.22;;;;;;;;;;4835567;29;20042;-68
2021/04/10 06:26:46;;;;;;;8.60;4.90;;;;;;;;;;4835216;29;20029;-74
2021/04/10 06:29:13;;;;;;;14.02;5.50;;;;;;;;;;4838455;29;20049;-69
2021/04/10 06:31:40;;;;;;;9.82;4.90;;;;;;;;;;4836338;29;20381;-70
2021/04/10 06:34:06;;;;;;;13.18;6.00;;;;;;;;;;4836313;29;20065;-72
2021/04/10 06:36:33;;;;;;;9.98;4.25;;;;;;;;;;4838620;29;20505;-73
2021/04/10 06:38:59;;;;;;;11.63;4.00;;;;;;;;;;4836291;29;20504;-67
2021/04/10 06:41:25;;;;;;;10.20;4.40;;;;;;;;;;4837508;29;20023;-66
2021/04/10 06:43:51;;;;;;;8.90;4.47;;;;;;;;;;4836652;29;20085;-65
2021/04/10 06:46:17;;;;;;;10.82;5.15;;;;;;;;;;4829415;29;20034;-75
2021/04/10 06:48:44;;;;;;;11.57;4.38;;;;;;;;;;4837874;29;20038;-65
2021/04/10 06:51:12;;;;;;;11.27;5.43;;;;;;;;;;4838332;29;20481;-74
2021/04/10 06:53:45;;;;;;;10.57;4.60;;;;;;;;;;4807321;29;20043;-67
2021/04/10 06:56:13;;;;;;;20.92;14.98;;;;;;;;;;4816737;29;20405;-66
2021/04/10 06:58:45;;;;;;;12.45;5.82;;;;;;;;;;4819801;29;20481;-67
2021/04/10 07:01:13;;;;;;;11.03;4.43;;;;;;;;;;4805034;29;20035;-73
2021/04/10 07:03:40;;;;;;;11.85;6.13;;;;;;;;;;4804442;29;20706;-72
2021/04/10 07:06:06;;;;;;;14.63;4.43;;;;;;;;;;4809917;29;20033;-73
2021/04/10 07:08:32;;;;;;;11.23;4.10;;;;;;;;;;4826080;29;20148;-66
2021/04/10 07:16:39;;;;;;;9.45;4.38;;;;;;;;;;4838547;29;20041;-72
2021/04/10 07:19:09;;;;;;;8.00;4.68;;;;;;;;;;4842212;29;20034;-71
2021/04/10 07:21:35;;;;;;;7.88;4.05;;;;;;;;;;4838093;29;20023;-73
2021/04/10 07:24:01;;;;;;;10.43;4.88;;;;;;;;;;4832100;29;20046;-74
2021/04/10 07:26:45;;;;;;;7.95;3.80;;;;;;;;;;4826872;29;20034;-74
2021/04/10 07:29:33;;;;;;;10.45;4.00;;;;;;;;;;4826530;29;20030;-71
2021/04/10 07:31:59;;;;;;;8.13;3.60;;;;;;;;;;4830428;29;20108;-72
2021/04/10 07:34:26;;;;;;;10.45;3.35;;;;;;;;;;4831100;29;20031;-68
2021/04/10 07:36:56;;;;;;;7.05;3.90;;;;;;;;;;4830135;29;20396;-74
2021/04/10 07:39:22;;;;;;;5.72;3.55;;;;;;;;;;4826367;29;20038;-73
2021/04/10 07:42:17;;;;;;;5.60;3.05;;;;;;;;;;4834317;29;20090;-74
2021/04/10 07:44:43;;;;;;;6.93;3.20;;;;;;;;;;4753778;30;20136;-68
2021/04/10 07:47:09;;;;;;;6.60;3.33;;;;;;;;;;4752465;30;20032;-70
2021/04/10 07:49:39;;;;;;;7.72;3.40;;;;;;;;;;4751618;30;20123;-67
2021/04/10 07:52:05;;;;;;;8.48;3.60;;;;;;;;;;4752768;30;20038;-66
2021/04/10 07:54:38;;;;;;;7.32;3.25;;;;;;;;;;4751934;30;20437;-74
2021/04/10 07:57:09;;;;;;;9.43;3.20;;;;;;;;;;4751842;30;20033;-67
2021/04/10 07:59:50;;;;;;;7.93;3.30;;;;;;;;;;4752218;30;20036;-74
2021/04/10 08:02:17;;;;;;;8.25;3.45;;;;;;;;;;4755101;30;20044;-68
2021/04/10 08:04:59;;;;;;;10.65;3.28;;;;;;;;;;4758238;30;20059;-67
2021/04/10 08:07:32;;;;;;;6.28;3.17;;;;;;;;;;4756622;30;20503;-67
2021/04/10 08:10:01;;;;;;;5.72;3.42;;;;;;;;;;4751889;30;20119;-66
2021/04/10 08:12:31;;;;;;;5.38;3.05;;;;;;;;;;4752160;30;20064;-71
2021/04/10 08:14:58;;;;;;;8.68;3.20;;;;;;;;;;4757071;30;20102;-73
2021/04/10 08:17:37;;;;;;;6.15;3.10;;;;;;;;;;4758737;30;20586;-72
2021/04/10 08:20:22;;;;;;;5.97;3.08;;;;;;;;;;4756672;29;20402;-67
2021/04/10 08:22:48;;;;;;;7.05;3.03;;;;;;;;;;4842283;29;20384;-66
2021/04/10 08:25:28;;;;;;;8.85;3.33;;;;;;;;;;4845421;29;20492;-67
2021/04/10 08:27:55;;;;;;;7.57;3.10;;;;;;;;;;4842786;29;20037;-66
2021/04/10 08:30:21;;;;;;;8.50;3.42;;;;;;;;;;4846841;29;20488;-67
2021/04/10 08:32:47;;;;;;;14.63;6.40;;;;;;;;;;4856342;29;20045;-68
2021/04/10 08:35:15;;;;;;;6.30;2.60;;;;;;;;;;4847661;29;20450;-70
2021/04/10 08:37:43;;;;;;;7.10;3.25;;;;;;;;;;4858509;29;20158;-66
2021/04/10 08:40:10;;;;;;;6.55;2.90;;;;;;;;;;4852553;29;20556;-72
2021/04/10 08:42:38;;;;;;;8.18;3.17;;;;;;;;;;4853008;29;20092;-70
2021/04/10 08:45:05;;;;;;;7.13;3.17;;;;;;;;;;4857269;29;20049;-67
2021/04/10 08:47:31;;;;;;;8.05;3.55;;;;;;;;;;4849341;29;20022;-73
2021/04/10 08:49:59;;;;;;;9.63;3.13;;;;;;;;;;4844469;29;20080;-76
2021/04/10 08:52:29;;;;;;;9.00;3.50;;;;;;;;;;4850828;29;20518;-82
2021/04/10 08:54:59;;;;;;;5.95;3.13;;;;;;;;;;4856566;29;20048;-66
2021/04/10 08:57:35;;;;;;;6.85;2.95;;;;;;;;;;4846809;29;20030;-70
2021/04/10 09:00:16;;;;;;;24.95;5.13;;;;;;;;;;4843002;29;20030;-76
2021/04/10 09:03:02;;;;;;;10.60;3.42;;;;;;;;;;4838776;29;20034;-67
2021/04/10 09:05:49;;;;;;;5.90;3.25;;;;;;;;;;4861243;29;20132;-80
2021/04/10 09:08:28;;;;;;;9.55;3.38;;;;;;;;;;4845327;29;20086;-69
2021/04/10 09:10:55;;;;;;;8.10;3.60;;;;;;;;;;4828953;29;20030;-67
2021/04/10 09:13:21;;;;;;;9.50;3.70;;;;;;;;;;4842360;29;20030;-71
2021/04/10 09:15:47;;;;;;;8.45;3.40;;;;;;;;;;4843678;29;20050;-66
2021/04/10 09:18:16;;;;;;;10.48;3.47;;;;;;;;;;4861217;29;20547;-69
2021/04/10 09:20:45;;;;;;;12.05;3.45;;;;;;;;;;4859669;29;20480;-67
2021/04/10 09:23:26;;;;;;;6.97;3.42;;;;;;;;;;4848888;29;20045;-67
2021/04/10 09:26:07;;;;;;;8.57;3.33;;;;;;;;;;4841101;29;20049;-67
2021/04/10 09:28:36;;;;;;;8.80;3.63;;;;;;;;;;4849908;29;20033;-67
2021/04/10 09:31:03;;;;;;;6.15;3.13;;;;;;;;;;4846623;29;20064;-75
2021/04/10 09:33:33;;;;;;;10.02;3.40;;;;;;;;;;4846192;29;20105;-70
2021/04/10 09:35:59;;;;;;;8.07;3.15;;;;;;;;;;4836089;29;20040;-66
2021/04/10 09:38:44;;;;;;;5.53;3.05;;;;;;;;;;4844358;29;20060;-66
2021/04/10 09:41:11;;;;;;;8.70;3.47;;;;;;;;;;4840717;29;20490;-68
2021/04/10 09:43:57;;;;;;;12.07;3.75;;;;;;;;;;4849863;29;20042;-64
2021/04/10 09:46:36;;;;;;;10.25;3.75;;;;;;;;;;4841511;29;20053;-68
2021/04/10 09:49:03;;;;;;;9.23;3.97;;;;;;;;;;4839755;29;20031;-68
2021/04/10 09:51:30;;;;;;;9.80;3.88;;;;;;;;;;4851285;29;20316;-66
2021/04/10 09:53:56;;;;;;;8.38;3.83;;;;;;;;;;4847743;29;20477;-65
2021/04/10 09:56:22;;;;;;;10.57;4.10;;;;;;;;;;4851423;29;20511;-70
2021/04/10 09:58:56;;;;;;;7.05;3.47;;;;;;;;;;4851776;29;20033;-68
2021/04/10 10:01:27;;;;;;;7.47;2.97;;;;;;;;;;4840789;29;20028;-66
2021/04/10 10:03:53;;;;;;;7.88;3.70;;;;;;;;;;4850748;29;20045;-64
2021/04/10 10:06:24;;;;;;;7.05;3.35;;;;;;;;;;4845525;29;20030;-67
2021/04/10 10:08:50;;;;;;;6.25;2.97;;;;;;;;;;4844345;29;20027;-67
2021/04/10 10:11:17;;;;;;;14.85;4.18;;;;;;;;;;4840349;29;20034;-66
2021/04/10 10:13:45;;;;;;;8.15;3.38;;;;;;;;;;4842511;29;20041;-68
2021/04/10 10:16:11;;;;;;;11.38;3.97;;;;;;;;;;4845351;29;20058;-66
2021/04/10 10:18:38;;;;;;;6.07;3.30;;;;;;;;;;4851860;29;20041;-67
2021/04/10 10:21:07;;;;;;;10.50;4.30;;;;;;;;;;4834397;29;20026;-68
2021/04/10 10:23:36;;;;;;;6.18;3.40;;;;;;;;;;4844020;29;20048;-69
2021/04/10 10:26:12;;;;;;;6.93;3.55;;;;;;;;;;4848134;29;20056;-66
2021/04/10 10:28:39;;;;;;;6.70;3.97;;;;;;;;;;4841429;29;20114;-65
2021/04/10 10:31:06;;;;;;;6.70;3.40;;;;;;;;;;4856308;29;20082;-67
2021/04/10 10:33:33;;;;;;;7.03;3.20;;;;;;;;;;4840719;29;20049;-66
2021/04/10 10:36:01;;;;;;;9.10;3.35;;;;;;;;;;4840352;29;20056;-67
2021/04/10 10:38:35;;;;;;;8.57;3.67;;;;;;;;;;4847847;29;20057;-68
2021/04/10 10:41:01;;;;;;;6.28;3.83;;;;;;;;;;4843535;29;20105;-67
2021/04/10 10:43:28;;;;;;;7.93;3.75;;;;;;;;;;4842845;29;20082;-66
2021/04/10 10:45:55;;;;;;;7.95;3.90;;;;;;;;;;4843214;29;20048;-67
2021/04/10 10:48:30;;;;;;;8.30;3.88;;;;;;;;;;4844041;29;20034;-67
2021/04/10 10:50:59;;;;;;;7.72;4.13;;;;;;;;;;4840899;29;20061;-67
2021/04/10 10:53:26;;;;;;;7.18;3.67;;;;;;;;;;4843073;29;20472;-67
2021/04/10 10:55:58;;;;;;;9.48;4.20;;;;;;;;;;4849528;29;20511;-65
2021/04/10 10:58:24;;;;;;;7.57;4.03;;;;;;;;;;4840315;29;20598;-66
2021/04/10 11:00:51;;;;;;;43.50;23.83;;;;;;;;;;4843277;29;20034;-68
2021/04/10 11:03:24;;;;;;;7.20;4.00;;;;;;;;;;4841936;29;20396;-76
2021/04/10 11:05:50;;;;;;;7.23;4.33;;;;;;;;;;4847009;29;20113;-71
2021/04/10 11:08:17;;;;;;;6.20;3.90;;;;;;;;;;4846600;29;20041;-66
2021/04/10 11:10:44;;;;;;;7.85;3.60;;;;;;;;;;4840667;29;20036;-64
2021/04/10 11:13:12;;;;;;;9.25;4.22;;;;;;;;;;4834930;29;20042;-67
2021/04/10 11:15:38;;;;;;;7.03;3.90;;;;;;;;;;4844635;29;20060;-66
2021/04/10 11:18:05;;;;;;;11.30;4.32;;;;;;;;;;4840787;29;20034;-65
2021/04/10 11:20:32;;;;;;;6.65;3.85;;;;;;;;;;4846326;29;20026;-67
2021/04/10 11:23:05;;;;;;;9.90;3.72;;;;;;;;;;4859637;29;20034;-70
2021/04/10 11:25:31;;;;;;;;;;;;;;;;;;4844436;29;20052;-73
2021/04/10 11:27:57;;;;;;;8.52;4.10;;;;;;;;;;4841817;29;19912;-67
2021/04/10 11:30:23;;;;;;;6.60;3.65;;;;;;;;;;4851003;29;20025;-71
2021/04/10 11:32:49;;;;;;;12.20;3.97;;;;;;;;;;4842977;29;20030;-66
2021/04/10 11:35:17;;;;;;;9.73;3.92;;;;;;;;;;4847007;29;20064;-71
2021/04/10 11:37:44;;;;;;;12.00;4.50;;;;;;;;;;4849310;29;20516;-64
2021/04/10 11:40:22;;;;;;;7.03;3.72;;;;;;;;;;4845074;29;20037;-65
2021/04/10 11:42:52;;;;;;;8.75;3.78;;;;;;;;;;4839905;29;20030;-66
2021/04/10 11:45:41;;;;;;;7.35;3.60;;;;;;;;;;4841868;29;20408;-67
2021/04/10 11:48:07;;;;;;;10.38;6.15;;;;;;;;;;4842612;29;20041;-66
2021/04/10 11:50:52;;;;;;;6.85;3.78;;;;;;;;;;4856062;29;20026;-73
2021/04/10 11:53:19;;;;;;;8.00;5.18;;;;;;;;;;4856435;29;20038;-67
2021/04/10 11:55:46;;;;;;;11.55;5.43;;;;;;;;;;4862928;29;20028;-68
2021/04/10 11:58:12;;;;;;;10.77;5.10;;;;;;;;;;4855870;29;20472;-66
2021/04/10 12:00:38;;;;;;;14.88;4.30;;;;;;;;;;4834369;29;20384;-66
2021/04/10 12:03:06;;;;;;;9.30;4.70;;;;;;;;;;4844032;29;20030;-66
2021/04/10 12:05:38;;;;;;;15.40;6.40;;;;;;;;;;4852343;29;20041;-70
2021/04/10 12:08:08;;;;;;;9.35;4.70;;;;;;;;;;4862664;29;20380;-72
2021/04/10 12:10:35;;;;;;;11.68;5.35;;;;;;;;;;4858095;29;20030;-68
2021/04/10 12:13:01;;;;;;;12.95;4.88;;;;;;;;;;4846939;29;20124;-70
2021/04/10 12:15:31;;;;;;;11.05;4.20;;;;;;;;;;4834963;29;20058;-70
2021/04/10 12:17:57;;;;;;;9.90;3.53;;;;;;;;;;4844917;29;20025;-72
2021/04/10 12:20:24;;;;;;;5.88;3.25;;;;;;;;;;4846574;29;20132;-68
2021/04/10 12:22:50;;;;;;;7.68;3.50;;;;;;;;;;4844975;29;20087;-69
2021/04/10 12:25:16;;;;;;;8.98;3.10;;;;;;;;;;4852768;29;20514;-67
2021/04/10 12:27:42;;;;;;;7.53;3.17;;;;;;;;;;4849939;29;20025;-68
2021/04/10 12:30:09;;;;;;;11.65;4.13;;;;;;;;;;4861867;29;20034;-67
2021/04/10 12:32:35;;;;;;;12.00;4.20;;;;;;;;;;4844757;29;20481;-71
2021/04/10 12:35:01;;;;;;;10.80;3.40;;;;;;;;;;4848105;29;20068;-68
2021/04/10 12:37:27;;;;;;;9.88;4.00;;;;;;;;;;4855255;29;20030;-70
2021/04/10 12:39:53;;;;;;;9.82;3.47;;;;;;;;;;4849501;29;20021;-72
2021/04/10 12:42:19;;;;;;;7.00;3.40;;;;;;;;;;4845535;29;20375;-72
2021/04/10 12:44:45;;;;;;;6.00;3.17;;;;;;;;;;4861609;29;20132;-72
2021/04/10 12:47:18;;;;;;;7.40;3.38;;;;;;;;;;4861995;29;20038;-68
2021/04/10 12:49:44;;;;;;;5.05;3.05;;;;;;;;;;4862015;29;20479;-66
2021/04/10 12:52:11;;;;;;;5.85;3.30;;;;;;;;;;4857948;29;20116;-72
2021/04/10 12:54:40;;;;;;;9.40;3.75;;;;;;;;;;4850100;29;20454;-69
2021/04/10 12:57:06;;;;;;;7.05;3.30;;;;;;;;;;4848532;29;20034;-68
2021/04/10 12:59:33;;;;;;;8.18;3.05;;;;;;;;;;4855803;29;20532;-68
2021/04/10 13:01:59;;;;;;;12.52;4.00;;;;;;;;;;4856414;29;20060;-73
2021/04/10 13:04:26;;;;;;;8.73;3.17;;;;;;;;;;4840054;29;20042;-68
2021/04/10 13:06:52;;;;;;;6.03;2.90;;;;;;;;;;4856852;29;20029;-67
2021/04/10 13:09:18;;;;;;;7.72;2.80;;;;;;;;;;4861259;29;20057;-70
2021/04/10 13:11:44;;;;;;;7.75;3.15;;;;;;;;;;4852220;29;20374;-67
2021/04/10 13:14:10;;;;;;;9.07;3.30;;;;;;;;;;4848313;29;20034;-67
2021/04/10 13:16:38;;;;;;;7.07;3.50;;;;;;;;;;4842781;29;20042;-71
2021/04/10 13:19:04;;;;;;;8.80;3.50;;;;;;;;;;4836531;29;20522;-67
2021/04/10 13:21:30;;;;;;;8.18;2.90;;;;;;;;;;4842423;29;20041;-70
2021/04/10 13:23:57;;;;;;;11.10;4.57;;;;;;;;;;4825942;29;20512;-67
2021/04/10 13:26:24;;;;;;;10.27;5.97;;;;;;;;;;4825744;29;20066;-70
2021/04/10 13:28:51;;;;;;;9.20;4.85;;;;;;;;;;4827993;29;20038;-73
2021/04/10 13:31:17;;;;;;;7.32;3.67;;;;;;;;;;4817996;29;20033;-72
2021/04/10 13:33:43;;;;;;;6.47;3.25;;;;;;;;;;4827602;29;20057;-66
2021/04/10 13:36:10;;;;;;;8.68;3.80;;;;;;;;;;4833280;29;20026;-68
2021/04/10 13:38:36;;;;;;;6.30;3.00;;;;;;;;;;4839392;29;20453;-73
2021/04/10 13:41:03;;;;;;;7.85;3.30;;;;;;;;;;4839170;29;20028;-66
2021/04/10 13:43:29;;;;;;;8.13;3.20;;;;;;;;;;4826429;29;20033;-67
2021/04/10 13:45:56;;;;;;;8.52;3.40;;;;;;;;;;4827732;29;20049;-67
2021/04/10 13:48:22;;;;;;;8.73;3.20;;;;;;;;;;4823864;29;20107;-69
2021/04/10 13:50:51;;;;;;;8.77;3.30;;;;;;;;;;4824290;29;20519;-76
2021/04/10 13:53:17;;;;;;;8.82;3.30;;;;;;;;;;4824431;29;20023;-71
2021/04/10 13:55:43;;;;;;;8.10;3.38;;;;;;;;;;4822165;29;20493;-69
2021/04/10 13:58:10;;;;;;;13.27;3.35;;;;;;;;;;4823299;29;20034;-71